sensor_id;sensor_type;location;lat;lon;timestamp;P1;durP1;ratioP1;P2;durP2;ratioP2
79578;SDS011;69051;52.406;5.280;2023-12-29T00:01:32;14.30;;;2.72;;
79578;SDS011;69051;52.406;5.280;2023-12-29T00:03:58;20.65;;;3.30;;
79578;SDS011;69051;52.406;5.280;2023-12-29T00:06:25;19.05;;;3.67;;
79578;SDS011;69051;52.406;5.280;2023-12-29T00:08:51;16.48;;;3.40;;
79578;SDS011;69051;52.406;5.280;2023-12-29T00:11:21;18.33;;;2.67;;
79578;SDS011;69051;52.406;5.280;2023-12-29T00:13:48;21.60;;;3.22;;
79578;SDS011;69051;52.406;5.280;2023-12-29T00:16:15;20.00;;;2.92;;
79578;SDS011;69051;52.406;5.280;2023-12-29T00:18:41;15.38;;;2.97;;
79578;SDS011;69051;52.406;5.280;2023-12-29T00:21:08;18.30;;;3.03;;
79578;SDS011;69051;52.406;5.280;2023-12-29T00:23:35;15.60;;;2.53;;
79578;SDS011;69051;52.406;5.280;2023-12-29T00:26:01;14.27;;;3.05;;
79578;SDS011;69051;52.406;5.280;2023-12-29T00:28:28;18.48;;;3.05;;
79578;SDS011;69051;52.406;5.280;2023-12-29T00:30:54;18.30;;;2.92;;
79578;SDS011;69051;52.406;5.280;2023-12-29T00:33:28;11.48;;;2.78;;
79578;SDS011;69051;52.406;5.280;2023-12-29T00:35:55;18.52;;;3.45;;
79578;SDS011;69051;52.406;5.280;2023-12-29T00:38:22;18.13;;;3.10;;
79578;SDS011;69051;52.406;5.280;2023-12-29T00:40:48;13.65;;;3.15;;
79578;SDS011;69051;52.406;5.280;2023-12-29T00:43:15;15.60;;;3.50;;
79578;SDS011;69051;52.406;5.280;2023-12-29T00:45:41;11.93;;;2.88;;
79578;SDS011;69051;52.406;5.280;2023-12-29T00:48:08;13.95;;;3.67;;
79578;SDS011;69051;52.406;5.280;2023-12-29T00:50:35;12.95;;;3.70;;
79578;SDS011;69051;52.406;5.280;2023-12-29T00:53:02;16.98;;;3.55;;
79578;SDS011;69051;52.406;5.280;2023-12-29T00:55:28;12.35;;;3.35;;
79578;SDS011;69051;52.406;5.280;2023-12-29T00:57:55;17.73;;;3.55;;
79578;SDS011;69051;52.406;5.280;2023-12-29T01:00:22;17.20;;;3.28;;
79578;SDS011;69051;52.406;5.280;2023-12-29T01:02:48;16.70;;;3.38;;
79578;SDS011;69051;52.406;5.280;2023-12-29T01:05:15;15.88;;;2.85;;
79578;SDS011;69051;52.406;5.280;2023-12-29T01:07:43;15.70;;;2.83;;
79578;SDS011;69051;52.406;5.280;2023-12-29T01:10:10;23.52;;;3.53;;
79578;SDS011;69051;52.406;5.280;2023-12-29T01:12:36;14.15;;;3.30;;
79578;SDS011;69051;52.406;5.280;2023-12-29T01:15:03;9.27;;;2.33;;
79578;SDS011;69051;52.406;5.280;2023-12-29T01:17:30;16.92;;;3.05;;
79578;SDS011;69051;52.406;5.280;2023-12-29T01:19:57;10.60;;;3.05;;
79578;SDS011;69051;52.406;5.280;2023-12-29T01:22:23;17.10;;;2.97;;
79578;SDS011;69051;52.406;5.280;2023-12-29T01:24:50;21.27;;;3.53;;
79578;SDS011;69051;52.406;5.280;2023-12-29T01:27:16;12.43;;;2.90;;
79578;SDS011;69051;52.406;5.280;2023-12-29T01:29:43;13.02;;;3.75;;
79578;SDS011;69051;52.406;5.280;2023-12-29T01:32:10;18.08;;;3.72;;
79578;SDS011;69051;52.406;5.280;2023-12-29T01:34:36;17.02;;;3.55;;
79578;SDS011;69051;52.406;5.280;2023-12-29T01:37:03;23.15;;;4.45;;
79578;SDS011;69051;52.406;5.280;2023-12-29T01:39:30;21.88;;;3.85;;
79578;SDS011;69051;52.406;5.280;2023-12-29T01:41:57;18.58;;;3.42;;
79578;SDS011;69051;52.406;5.280;2023-12-29T01:44:23;28.55;;;4.75;;
79578;SDS011;69051;52.406;5.280;2023-12-29T01:46:50;13.15;;;3.97;;
79578;SDS011;69051;52.406;5.280;2023-12-29T01:49:18;15.10;;;3.70;;
79578;SDS011;69051;52.406;5.280;2023-12-29T01:51:50;13.23;;;4.45;;
79578;SDS011;69051;52.406;5.280;2023-12-29T01:54:18;17.52;;;3.38;;
79578;SDS011;69051;52.406;5.280;2023-12-29T01:56:45;20.92;;;4.30;;
79578;SDS011;69051;52.406;5.280;2023-12-29T01:59:13;11.32;;;3.50;;
79578;SDS011;69051;52.406;5.280;2023-12-29T02:01:50;14.88;;;3.10;;
79578;SDS011;69051;52.406;5.280;2023-12-29T02:04:17;21.15;;;4.60;;
79578;SDS011;69051;52.406;5.280;2023-12-29T02:06:44;17.10;;;4.00;;
79578;SDS011;69051;52.406;5.280;2023-12-29T02:09:11;13.50;;;3.97;;
79578;SDS011;69051;52.406;5.280;2023-12-29T02:11:38;15.77;;;3.85;;
79578;SDS011;69051;52.406;5.280;2023-12-29T02:14:05;11.82;;;3.08;;
79578;SDS011;69051;52.406;5.280;2023-12-29T02:19:14;11.75;;;4.32;;
79578;SDS011;69051;52.406;5.280;2023-12-29T02:21:46;13.05;;;3.58;;
79578;SDS011;69051;52.406;5.280;2023-12-29T02:24:12;20.60;;;4.47;;
79578;SDS011;69051;52.406;5.280;2023-12-29T02:26:39;22.05;;;5.18;;
79578;SDS011;69051;52.406;5.280;2023-12-29T02:29:10;21.27;;;4.43;;
79578;SDS011;69051;52.406;5.280;2023-12-29T02:31:39;14.95;;;3.20;;
79578;SDS011;69051;52.406;5.280;2023-12-29T02:34:10;13.23;;;3.58;;
79578;SDS011;69051;52.406;5.280;2023-12-29T02:36:38;15.45;;;3.70;;
79578;SDS011;69051;52.406;5.280;2023-12-29T02:39:09;16.38;;;2.63;;
79578;SDS011;69051;52.406;5.280;2023-12-29T02:41:37;11.93;;;3.58;;
79578;SDS011;69051;52.406;5.280;2023-12-29T02:44:04;15.25;;;3.45;;
79578;SDS011;69051;52.406;5.280;2023-12-29T02:46:30;21.75;;;4.68;;
79578;SDS011;69051;52.406;5.280;2023-12-29T02:48:57;25.67;;;5.15;;
79578;SDS011;69051;52.406;5.280;2023-12-29T02:51:25;15.00;;;3.75;;
79578;SDS011;69051;52.406;5.280;2023-12-29T02:53:52;17.05;;;3.60;;
79578;SDS011;69051;52.406;5.280;2023-12-29T02:56:18;13.73;;;3.50;;
79578;SDS011;69051;52.406;5.280;2023-12-29T02:58:45;18.27;;;3.85;;
79578;SDS011;69051;52.406;5.280;2023-12-29T03:01:12;16.13;;;3.72;;
79578;SDS011;69051;52.406;5.280;2023-12-29T03:03:38;23.45;;;4.28;;
79578;SDS011;69051;52.406;5.280;2023-12-29T03:06:06;27.50;;;4.20;;
79578;SDS011;69051;52.406;5.280;2023-12-29T03:08:33;14.70;;;3.35;;
79578;SDS011;69051;52.406;5.280;2023-12-29T03:10:59;16.77;;;3.25;;
79578;SDS011;69051;52.406;5.280;2023-12-29T03:13:26;25.77;;;4.32;;
79578;SDS011;69051;52.406;5.280;2023-12-29T03:15:52;20.55;;;2.67;;
79578;SDS011;69051;52.406;5.280;2023-12-29T03:18:19;21.35;;;3.38;;
79578;SDS011;69051;52.406;5.280;2023-12-29T03:20:46;20.25;;;3.13;;
79578;SDS011;69051;52.406;5.280;2023-12-29T03:23:12;18.02;;;3.25;;
79578;SDS011;69051;52.406;5.280;2023-12-29T03:25:39;17.25;;;2.53;;
79578;SDS011;69051;52.406;5.280;2023-12-29T03:28:05;25.67;;;3.05;;
79578;SDS011;69051;52.406;5.280;2023-12-29T03:30:32;16.92;;;3.33;;
79578;SDS011;69051;52.406;5.280;2023-12-29T03:32:58;13.52;;;2.63;;
79578;SDS011;69051;52.406;5.280;2023-12-29T03:35:27;28.77;;;3.35;;
79578;SDS011;69051;52.406;5.280;2023-12-29T03:37:54;15.88;;;2.70;;
79578;SDS011;69051;52.406;5.280;2023-12-29T03:40:20;22.85;;;3.28;;
79578;SDS011;69051;52.406;5.280;2023-12-29T03:42:47;24.63;;;2.30;;
79578;SDS011;69051;52.406;5.280;2023-12-29T03:45:13;23.33;;;3.28;;
79578;SDS011;69051;52.406;5.280;2023-12-29T03:47:40;18.95;;;2.35;;
79578;SDS011;69051;52.406;5.280;2023-12-29T03:50:07;18.98;;;2.92;;
79578;SDS011;69051;52.406;5.280;2023-12-29T03:52:33;15.77;;;1.85;;
79578;SDS011;69051;52.406;5.280;2023-12-29T03:55:00;16.35;;;2.20;;
79578;SDS011;69051;52.406;5.280;2023-12-29T03:57:27;15.98;;;2.33;;
79578;SDS011;69051;52.406;5.280;2023-12-29T03:59:53;27.20;;;4.13;;
79578;SDS011;69051;52.406;5.280;2023-12-29T04:02:20;25.33;;;3.88;;
79578;SDS011;69051;52.406;5.280;2023-12-29T04:04:47;22.60;;;3.25;;
79578;SDS011;69051;52.406;5.280;2023-12-29T04:07:14;15.00;;;2.60;;
79578;SDS011;69051;52.406;5.280;2023-12-29T04:09:40;18.98;;;2.40;;
79578;SDS011;69051;52.406;5.280;2023-12-29T04:12:07;23.58;;;2.00;;
79578;SDS011;69051;52.406;5.280;2023-12-29T04:14:34;13.27;;;2.30;;
79578;SDS011;69051;52.406;5.280;2023-12-29T04:17:00;17.20;;;2.55;;
79578;SDS011;69051;52.406;5.280;2023-12-29T04:19:29;16.63;;;2.97;;
79578;SDS011;69051;52.406;5.280;2023-12-29T04:21:56;17.65;;;2.55;;
79578;SDS011;69051;52.406;5.280;2023-12-29T04:24:22;15.48;;;2.78;;
79578;SDS011;69051;52.406;5.280;2023-12-29T04:26:49;27.55;;;3.20;;
79578;SDS011;69051;52.406;5.280;2023-12-29T04:29:15;21.95;;;2.95;;
79578;SDS011;69051;52.406;5.280;2023-12-29T04:31:42;24.10;;;2.88;;
79578;SDS011;69051;52.406;5.280;2023-12-29T04:34:08;28.70;;;3.95;;
79578;SDS011;69051;52.406;5.280;2023-12-29T04:36:35;25.35;;;2.67;;
79578;SDS011;69051;52.406;5.280;2023-12-29T04:39:01;25.58;;;3.30;;
79578;SDS011;69051;52.406;5.280;2023-12-29T04:41:28;30.48;;;3.90;;
79578;SDS011;69051;52.406;5.280;2023-12-29T04:43:54;17.83;;;2.45;;
79578;SDS011;69051;52.406;5.280;2023-12-29T04:46:21;23.38;;;2.88;;
79578;SDS011;69051;52.406;5.280;2023-12-29T04:48:47;20.45;;;2.72;;
79578;SDS011;69051;52.406;5.280;2023-12-29T04:51:14;22.77;;;3.65;;
79578;SDS011;69051;52.406;5.280;2023-12-29T04:53:40;22.38;;;2.42;;
79578;SDS011;69051;52.406;5.280;2023-12-29T04:56:07;21.40;;;3.00;;
79578;SDS011;69051;52.406;5.280;2023-12-29T04:58:33;26.98;;;3.85;;
79578;SDS011;69051;52.406;5.280;2023-12-29T05:01:00;30.15;;;3.55;;
79578;SDS011;69051;52.406;5.280;2023-12-29T05:03:26;32.83;;;4.03;;
79578;SDS011;69051;52.406;5.280;2023-12-29T05:05:53;26.40;;;3.92;;
79578;SDS011;69051;52.406;5.280;2023-12-29T05:08:19;35.80;;;5.32;;
79578;SDS011;69051;52.406;5.280;2023-12-29T05:10:45;28.35;;;3.35;;
79578;SDS011;69051;52.406;5.280;2023-12-29T05:13:12;24.13;;;3.45;;
79578;SDS011;69051;52.406;5.280;2023-12-29T05:15:39;30.63;;;3.55;;
79578;SDS011;69051;52.406;5.280;2023-12-29T05:18:05;28.40;;;3.28;;
79578;SDS011;69051;52.406;5.280;2023-12-29T05:20:32;27.70;;;3.17;;
79578;SDS011;69051;52.406;5.280;2023-12-29T05:23:00;27.70;;;3.78;;
79578;SDS011;69051;52.406;5.280;2023-12-29T05:25:27;39.90;;;6.30;;
79578;SDS011;69051;52.406;5.280;2023-12-29T05:27:53;31.90;;;4.03;;
79578;SDS011;69051;52.406;5.280;2023-12-29T05:30:20;27.50;;;3.70;;
79578;SDS011;69051;52.406;5.280;2023-12-29T05:32:46;29.02;;;4.38;;
79578;SDS011;69051;52.406;5.280;2023-12-29T05:35:13;39.13;;;4.80;;
79578;SDS011;69051;52.406;5.280;2023-12-29T05:37:39;34.97;;;4.32;;
79578;SDS011;69051;52.406;5.280;2023-12-29T05:40:06;23.08;;;3.47;;
79578;SDS011;69051;52.406;5.280;2023-12-29T05:42:33;36.60;;;4.88;;
79578;SDS011;69051;52.406;5.280;2023-12-29T05:44:59;22.27;;;3.75;;
79578;SDS011;69051;52.406;5.280;2023-12-29T05:47:26;27.15;;;3.60;;
79578;SDS011;69051;52.406;5.280;2023-12-29T05:49:52;36.50;;;4.78;;
79578;SDS011;69051;52.406;5.280;2023-12-29T05:52:19;16.48;;;3.45;;
79578;SDS011;69051;52.406;5.280;2023-12-29T05:54:47;34.97;;;4.28;;
79578;SDS011;69051;52.406;5.280;2023-12-29T05:57:15;34.13;;;3.75;;
79578;SDS011;69051;52.406;5.280;2023-12-29T05:59:42;20.92;;;3.08;;
79578;SDS011;69051;52.406;5.280;2023-12-29T06:02:08;29.33;;;3.17;;
79578;SDS011;69051;52.406;5.280;2023-12-29T06:04:35;42.13;;;3.95;;
79578;SDS011;69051;52.406;5.280;2023-12-29T06:07:02;27.15;;;3.72;;
79578;SDS011;69051;52.406;5.280;2023-12-29T06:09:29;26.50;;;4.15;;
79578;SDS011;69051;52.406;5.280;2023-12-29T06:11:55;29.13;;;3.50;;
79578;SDS011;69051;52.406;5.280;2023-12-29T06:14:22;34.72;;;3.47;;
79578;SDS011;69051;52.406;5.280;2023-12-29T06:16:48;21.48;;;2.90;;
79578;SDS011;69051;52.406;5.280;2023-12-29T06:19:15;36.72;;;4.55;;
79578;SDS011;69051;52.406;5.280;2023-12-29T06:21:42;46.72;;;4.82;;
79578;SDS011;69051;52.406;5.280;2023-12-29T06:24:11;28.40;;;3.70;;
79578;SDS011;69051;52.406;5.280;2023-12-29T06:26:38;24.45;;;4.07;;
79578;SDS011;69051;52.406;5.280;2023-12-29T06:29:09;25.17;;;4.03;;
79578;SDS011;69051;52.406;5.280;2023-12-29T06:31:40;26.20;;;3.70;;
79578;SDS011;69051;52.406;5.280;2023-12-29T06:36:35;34.05;;;6.22;;
79578;SDS011;69051;52.406;5.280;2023-12-29T06:39:02;27.20;;;3.15;;
79578;SDS011;69051;52.406;5.280;2023-12-29T06:41:28;33.17;;;3.85;;
79578;SDS011;69051;52.406;5.280;2023-12-29T06:43:55;21.30;;;2.80;;
79578;SDS011;69051;52.406;5.280;2023-12-29T06:46:21;22.33;;;3.97;;
79578;SDS011;69051;52.406;5.280;2023-12-29T06:48:48;32.03;;;3.50;;
79578;SDS011;69051;52.406;5.280;2023-12-29T06:51:16;29.55;;;3.33;;
79578;SDS011;69051;52.406;5.280;2023-12-29T06:53:45;17.38;;;2.10;;
79578;SDS011;69051;52.406;5.280;2023-12-29T06:56:13;27.73;;;3.13;;
79578;SDS011;69051;52.406;5.280;2023-12-29T06:58:41;26.45;;;2.67;;
79578;SDS011;69051;52.406;5.280;2023-12-29T07:01:07;25.60;;;2.97;;
79578;SDS011;69051;52.406;5.280;2023-12-29T07:03:34;18.50;;;2.65;;
79578;SDS011;69051;52.406;5.280;2023-12-29T07:06:01;23.58;;;3.15;;
79578;SDS011;69051;52.406;5.280;2023-12-29T07:08:28;18.83;;;3.55;;
79578;SDS011;69051;52.406;5.280;2023-12-29T07:10:55;22.67;;;2.83;;
79578;SDS011;69051;52.406;5.280;2023-12-29T07:13:21;16.33;;;2.28;;
79578;SDS011;69051;52.406;5.280;2023-12-29T07:15:48;25.05;;;2.95;;
79578;SDS011;69051;52.406;5.280;2023-12-29T07:18:15;22.90;;;3.22;;
79578;SDS011;69051;52.406;5.280;2023-12-29T07:20:42;21.13;;;3.08;;
79578;SDS011;69051;52.406;5.280;2023-12-29T07:23:08;28.30;;;3.78;;
79578;SDS011;69051;52.406;5.280;2023-12-29T07:25:35;23.27;;;3.40;;
79578;SDS011;69051;52.406;5.280;2023-12-29T07:28:02;17.63;;;2.83;;
79578;SDS011;69051;52.406;5.280;2023-12-29T07:30:28;23.90;;;3.42;;
79578;SDS011;69051;52.406;5.280;2023-12-29T07:32:55;18.40;;;2.63;;
79578;SDS011;69051;52.406;5.280;2023-12-29T07:35:22;22.98;;;3.35;;
79578;SDS011;69051;52.406;5.280;2023-12-29T07:37:48;18.25;;;2.65;;
79578;SDS011;69051;52.406;5.280;2023-12-29T07:40:15;25.63;;;3.30;;
79578;SDS011;69051;52.406;5.280;2023-12-29T07:42:42;28.35;;;3.05;;
79578;SDS011;69051;52.406;5.280;2023-12-29T07:45:10;20.13;;;2.63;;
79578;SDS011;69051;52.406;5.280;2023-12-29T07:47:37;20.42;;;3.00;;
79578;SDS011;69051;52.406;5.280;2023-12-29T07:50:06;15.68;;;2.25;;
79578;SDS011;69051;52.406;5.280;2023-12-29T07:52:33;19.50;;;3.13;;
79578;SDS011;69051;52.406;5.280;2023-12-29T07:55:00;21.08;;;2.85;;
79578;SDS011;69051;52.406;5.280;2023-12-29T07:57:26;18.08;;;2.33;;
79578;SDS011;69051;52.406;5.280;2023-12-29T07:59:53;24.38;;;2.50;;
79578;SDS011;69051;52.406;5.280;2023-12-29T08:02:19;18.40;;;2.40;;
79578;SDS011;69051;52.406;5.280;2023-12-29T08:04:46;15.63;;;2.92;;
79578;SDS011;69051;52.406;5.280;2023-12-29T08:07:14;15.07;;;2.83;;
79578;SDS011;69051;52.406;5.280;2023-12-29T08:09:41;17.20;;;2.92;;
79578;SDS011;69051;52.406;5.280;2023-12-29T08:12:08;10.60;;;2.22;;
79578;SDS011;69051;52.406;5.280;2023-12-29T08:14:34;17.13;;;2.92;;
79578;SDS011;69051;52.406;5.280;2023-12-29T08:17:00;21.33;;;2.67;;
79578;SDS011;69051;52.406;5.280;2023-12-29T08:19:27;15.23;;;3.00;;
79578;SDS011;69051;52.406;5.280;2023-12-29T08:21:54;18.30;;;2.33;;
79578;SDS011;69051;52.406;5.280;2023-12-29T08:24:20;12.38;;;2.45;;
79578;SDS011;69051;52.406;5.280;2023-12-29T08:26:47;13.75;;;2.40;;
79578;SDS011;69051;52.406;5.280;2023-12-29T08:29:14;17.85;;;3.00;;
79578;SDS011;69051;52.406;5.280;2023-12-29T08:31:41;16.92;;;3.13;;
79578;SDS011;69051;52.406;5.280;2023-12-29T08:34:09;15.90;;;3.25;;
79578;SDS011;69051;52.406;5.280;2023-12-29T08:36:36;15.45;;;2.78;;
79578;SDS011;69051;52.406;5.280;2023-12-29T08:39:02;19.65;;;3.42;;
79578;SDS011;69051;52.406;5.280;2023-12-29T08:41:29;19.80;;;3.50;;
79578;SDS011;69051;52.406;5.280;2023-12-29T08:43:55;16.75;;;3.15;;
79578;SDS011;69051;52.406;5.280;2023-12-29T08:46:22;14.35;;;3.70;;
79578;SDS011;69051;52.406;5.280;2023-12-29T08:48:50;26.35;;;4.05;;
79578;SDS011;69051;52.406;5.280;2023-12-29T08:51:17;19.50;;;3.08;;
79578;SDS011;69051;52.406;5.280;2023-12-29T08:53:43;21.77;;;2.78;;
79578;SDS011;69051;52.406;5.280;2023-12-29T08:56:10;15.80;;;2.58;;
79578;SDS011;69051;52.406;5.280;2023-12-29T08:58:36;16.67;;;2.97;;
79578;SDS011;69051;52.406;5.280;2023-12-29T09:01:03;21.13;;;3.25;;
79578;SDS011;69051;52.406;5.280;2023-12-29T09:03:29;17.17;;;3.13;;
79578;SDS011;69051;52.406;5.280;2023-12-29T09:05:56;20.02;;;2.90;;
79578;SDS011;69051;52.406;5.280;2023-12-29T09:08:23;15.48;;;3.25;;
79578;SDS011;69051;52.406;5.280;2023-12-29T09:10:50;11.93;;;2.90;;
79578;SDS011;69051;52.406;5.280;2023-12-29T09:13:16;13.18;;;2.80;;
79578;SDS011;69051;52.406;5.280;2023-12-29T09:15:45;10.75;;;2.97;;
79578;SDS011;69051;52.406;5.280;2023-12-29T09:18:12;17.65;;;3.38;;
79578;SDS011;69051;52.406;5.280;2023-12-29T09:20:39;13.13;;;3.05;;
79578;SDS011;69051;52.406;5.280;2023-12-29T09:23:06;20.65;;;4.28;;
79578;SDS011;69051;52.406;5.280;2023-12-29T09:25:32;16.83;;;3.30;;
79578;SDS011;69051;52.406;5.280;2023-12-29T09:27:59;16.08;;;3.20;;
79578;SDS011;69051;52.406;5.280;2023-12-29T09:30:26;13.02;;;3.22;;
79578;SDS011;69051;52.406;5.280;2023-12-29T09:32:52;11.60;;;2.63;;
79578;SDS011;69051;52.406;5.280;2023-12-29T09:35:19;12.63;;;2.70;;
79578;SDS011;69051;52.406;5.280;2023-12-29T09:37:49;12.38;;;2.92;;
79578;SDS011;69051;52.406;5.280;2023-12-29T09:40:16;14.45;;;3.30;;
79578;SDS011;69051;52.406;5.280;2023-12-29T09:42:43;15.48;;;2.58;;
79578;SDS011;69051;52.406;5.280;2023-12-29T09:45:11;13.52;;;1.63;;
79578;SDS011;69051;52.406;5.280;2023-12-29T09:47:40;13.25;;;1.80;;
79578;SDS011;69051;52.406;5.280;2023-12-29T09:50:07;19.70;;;2.30;;
79578;SDS011;69051;52.406;5.280;2023-12-29T09:52:38;11.35;;;2.30;;
79578;SDS011;69051;52.406;5.280;2023-12-29T09:55:07;13.27;;;2.60;;
79578;SDS011;69051;52.406;5.280;2023-12-29T09:57:37;9.10;;;2.95;;
79578;SDS011;69051;52.406;5.280;2023-12-29T10:00:05;14.60;;;2.47;;
79578;SDS011;69051;52.406;5.280;2023-12-29T10:02:32;8.05;;;1.88;;
79578;SDS011;69051;52.406;5.280;2023-12-29T10:05:01;10.68;;;2.03;;
79578;SDS011;69051;52.406;5.280;2023-12-29T10:07:29;15.02;;;2.53;;
79578;SDS011;69051;52.406;5.280;2023-12-29T10:09:58;9.38;;;2.28;;
79578;SDS011;69051;52.406;5.280;2023-12-29T10:12:25;11.65;;;2.95;;
79578;SDS011;69051;52.406;5.280;2023-12-29T10:15:01;13.35;;;1.92;;
79578;SDS011;69051;52.406;5.280;2023-12-29T10:17:51;10.60;;;2.17;;
79578;SDS011;69051;52.406;5.280;2023-12-29T10:20:30;12.07;;;2.13;;
79578;SDS011;69051;52.406;5.280;2023-12-29T10:23:04;6.90;;;1.63;;
79578;SDS011;69051;52.406;5.280;2023-12-29T10:25:35;16.25;;;2.05;;
79578;SDS011;69051;52.406;5.280;2023-12-29T10:28:02;9.13;;;1.60;;
79578;SDS011;69051;52.406;5.280;2023-12-29T10:30:30;13.60;;;2.58;;
79578;SDS011;69051;52.406;5.280;2023-12-29T10:33:00;19.33;;;2.67;;
79578;SDS011;69051;52.406;5.280;2023-12-29T10:35:30;11.25;;;1.85;;
79578;SDS011;69051;52.406;5.280;2023-12-29T10:38:07;22.23;;;3.55;;
79578;SDS011;69051;52.406;5.280;2023-12-29T10:40:35;17.02;;;2.05;;
79578;SDS011;69051;52.406;5.280;2023-12-29T10:43:02;13.65;;;2.30;;
79578;SDS011;69051;52.406;5.280;2023-12-29T10:45:33;17.48;;;2.05;;
79578;SDS011;69051;52.406;5.280;2023-12-29T10:48:00;25.58;;;2.45;;
79578;SDS011;69051;52.406;5.280;2023-12-29T10:50:26;15.52;;;2.30;;
79578;SDS011;69051;52.406;5.280;2023-12-29T10:53:14;9.07;;;1.85;;
79578;SDS011;69051;52.406;5.280;2023-12-29T10:55:44;12.55;;;1.88;;
79578;SDS011;69051;52.406;5.280;2023-12-29T10:58:11;17.98;;;2.97;;
79578;SDS011;69051;52.406;5.280;2023-12-29T11:00:37;23.27;;;2.83;;
79578;SDS011;69051;52.406;5.280;2023-12-29T11:03:04;13.48;;;2.30;;
79578;SDS011;69051;52.406;5.280;2023-12-29T11:05:31;18.17;;;2.20;;
79578;SDS011;69051;52.406;5.280;2023-12-29T11:07:58;12.05;;;1.83;;
79578;SDS011;69051;52.406;5.280;2023-12-29T11:10:25;14.02;;;2.30;;
79578;SDS011;69051;52.406;5.280;2023-12-29T11:12:52;16.55;;;2.13;;
79578;SDS011;69051;52.406;5.280;2023-12-29T11:15:20;15.30;;;2.28;;
79578;SDS011;69051;52.406;5.280;2023-12-29T11:17:48;21.35;;;2.10;;
79578;SDS011;69051;52.406;5.280;2023-12-29T11:20:16;15.80;;;1.85;;
79578;SDS011;69051;52.406;5.280;2023-12-29T11:22:43;14.75;;;1.73;;
79578;SDS011;69051;52.406;5.280;2023-12-29T11:25:12;20.27;;;2.60;;
79578;SDS011;69051;52.406;5.280;2023-12-29T11:27:39;12.88;;;2.10;;
79578;SDS011;69051;52.406;5.280;2023-12-29T11:30:06;11.95;;;1.63;;
79578;SDS011;69051;52.406;5.280;2023-12-29T11:41:13;16.33;;;1.92;;
79578;SDS011;69051;52.406;5.280;2023-12-29T11:43:45;10.90;;;2.00;;
79578;SDS011;69051;52.406;5.280;2023-12-29T11:46:34;19.23;;;2.30;;
79578;SDS011;69051;52.406;5.280;2023-12-29T11:49:02;17.13;;;2.40;;
79578;SDS011;69051;52.406;5.280;2023-12-29T11:51:35;13.65;;;3.53;;
79578;SDS011;69051;52.406;5.280;2023-12-29T11:56:31;16.10;;;2.47;;
79578;SDS011;69051;52.406;5.280;2023-12-29T12:02:01;15.73;;;2.10;;
79578;SDS011;69051;52.406;5.280;2023-12-29T12:04:41;18.52;;;2.40;;
79578;SDS011;69051;52.406;5.280;2023-12-29T12:07:15;14.30;;;1.20;;
79578;SDS011;69051;52.406;5.280;2023-12-29T12:09:43;15.98;;;1.67;;
79578;SDS011;69051;52.406;5.280;2023-12-29T12:12:10;9.25;;;1.58;;
79578;SDS011;69051;52.406;5.280;2023-12-29T12:22:25;21.58;;;3.08;;
79578;SDS011;69051;52.406;5.280;2023-12-29T12:24:57;16.80;;;2.63;;
79578;SDS011;69051;52.406;5.280;2023-12-29T12:27:25;13.43;;;1.90;;
79578;SDS011;69051;52.406;5.280;2023-12-29T12:29:53;16.40;;;1.98;;
79578;SDS011;69051;52.406;5.280;2023-12-29T12:32:25;24.00;;;2.83;;
79578;SDS011;69051;52.406;5.280;2023-12-29T12:34:52;12.02;;;2.03;;
79578;SDS011;69051;52.406;5.280;2023-12-29T12:37:23;13.73;;;2.75;;
79578;SDS011;69051;52.406;5.280;2023-12-29T12:39:50;10.40;;;1.85;;
79578;SDS011;69051;52.406;5.280;2023-12-29T12:42:18;14.27;;;1.67;;
79578;SDS011;69051;52.406;5.280;2023-12-29T12:44:55;11.38;;;1.58;;
79578;SDS011;69051;52.406;5.280;2023-12-29T12:47:32;8.65;;;1.50;;
79578;SDS011;69051;52.406;5.280;2023-12-29T12:50:00;11.20;;;1.25;;
79578;SDS011;69051;52.406;5.280;2023-12-29T12:52:31;17.13;;;2.10;;
79578;SDS011;69051;52.406;5.280;2023-12-29T12:54:58;13.35;;;1.50;;
79578;SDS011;69051;52.406;5.280;2023-12-29T12:57:25;20.02;;;2.85;;
79578;SDS011;69051;52.406;5.280;2023-12-29T12:59:51;18.02;;;2.30;;
79578;SDS011;69051;52.406;5.280;2023-12-29T13:02:20;12.02;;;1.70;;
79578;SDS011;69051;52.406;5.280;2023-12-29T13:04:47;13.40;;;1.77;;
79578;SDS011;69051;52.406;5.280;2023-12-29T13:07:17;16.65;;;2.53;;
79578;SDS011;69051;52.406;5.280;2023-12-29T13:09:45;11.07;;;1.77;;
79578;SDS011;69051;52.406;5.280;2023-12-29T13:12:13;17.58;;;2.53;;
79578;SDS011;69051;52.406;5.280;2023-12-29T13:14:40;20.73;;;2.63;;
79578;SDS011;69051;52.406;5.280;2023-12-29T13:17:07;23.05;;;2.40;;
79578;SDS011;69051;52.406;5.280;2023-12-29T13:19:37;11.75;;;1.70;;
79578;SDS011;69051;52.406;5.280;2023-12-29T13:22:07;15.23;;;1.75;;
79578;SDS011;69051;52.406;5.280;2023-12-29T13:24:35;15.75;;;2.67;;
79578;SDS011;69051;52.406;5.280;2023-12-29T13:27:13;16.08;;;2.42;;
79578;SDS011;69051;52.406;5.280;2023-12-29T13:29:39;12.45;;;2.13;;
79578;SDS011;69051;52.406;5.280;2023-12-29T13:40:13;12.40;;;1.80;;
79578;SDS011;69051;52.406;5.280;2023-12-29T13:42:43;11.82;;;1.75;;
79578;SDS011;69051;52.406;5.280;2023-12-29T13:45:12;14.65;;;1.83;;
79578;SDS011;69051;52.406;5.280;2023-12-29T13:47:39;12.60;;;1.63;;
79578;SDS011;69051;52.406;5.280;2023-12-29T13:50:08;13.82;;;1.90;;
79578;SDS011;69051;52.406;5.280;2023-12-29T13:52:38;13.57;;;2.25;;
79578;SDS011;69051;52.406;5.280;2023-12-29T13:55:05;13.10;;;1.80;;
79578;SDS011;69051;52.406;5.280;2023-12-29T13:57:33;12.57;;;1.88;;
79578;SDS011;69051;52.406;5.280;2023-12-29T14:00:16;10.45;;;2.03;;
79578;SDS011;69051;52.406;5.280;2023-12-29T14:08:08;16.48;;;1.52;;
79578;SDS011;69051;52.406;5.280;2023-12-29T14:10:36;10.75;;;1.60;;
79578;SDS011;69051;52.406;5.280;2023-12-29T14:13:21;12.35;;;1.77;;
79578;SDS011;69051;52.406;5.280;2023-12-29T14:15:48;12.10;;;2.83;;
79578;SDS011;69051;52.406;5.280;2023-12-29T14:20:47;15.52;;;1.77;;
79578;SDS011;69051;52.406;5.280;2023-12-29T14:23:16;11.30;;;1.77;;
79578;SDS011;69051;52.406;5.280;2023-12-29T14:25:43;19.33;;;2.13;;
79578;SDS011;69051;52.406;5.280;2023-12-29T14:28:14;10.80;;;1.40;;
79578;SDS011;69051;52.406;5.280;2023-12-29T14:30:42;10.85;;;1.45;;
79578;SDS011;69051;52.406;5.280;2023-12-29T14:33:09;13.07;;;1.27;;
79578;SDS011;69051;52.406;5.280;2023-12-29T14:35:36;8.63;;;1.98;;
79578;SDS011;69051;52.406;5.280;2023-12-29T14:38:03;10.55;;;1.45;;
79578;SDS011;69051;52.406;5.280;2023-12-29T14:40:30;16.98;;;2.30;;
79578;SDS011;69051;52.406;5.280;2023-12-29T14:43:01;17.50;;;1.65;;
79578;SDS011;69051;52.406;5.280;2023-12-29T14:45:28;10.60;;;1.38;;
79578;SDS011;69051;52.406;5.280;2023-12-29T14:47:58;8.65;;;1.38;;
79578;SDS011;69051;52.406;5.280;2023-12-29T14:50:25;15.88;;;2.88;;
79578;SDS011;69051;52.406;5.280;2023-12-29T14:52:52;7.25;;;1.23;;
79578;SDS011;69051;52.406;5.280;2023-12-29T14:55:18;8.63;;;1.40;;
79578;SDS011;69051;52.406;5.280;2023-12-29T14:57:46;9.88;;;1.50;;
79578;SDS011;69051;52.406;5.280;2023-12-29T15:00:13;9.15;;;1.52;;
79578;SDS011;69051;52.406;5.280;2023-12-29T15:02:42;10.07;;;1.40;;
79578;SDS011;69051;52.406;5.280;2023-12-29T15:05:09;8.90;;;1.27;;
79578;SDS011;69051;52.406;5.280;2023-12-29T15:07:35;7.97;;;1.45;;
79578;SDS011;69051;52.406;5.280;2023-12-29T15:10:02;11.57;;;1.58;;
79578;SDS011;69051;52.406;5.280;2023-12-29T15:12:29;8.52;;;1.60;;
79578;SDS011;69051;52.406;5.280;2023-12-29T15:14:55;10.45;;;1.42;;
79578;SDS011;69051;52.406;5.280;2023-12-29T15:17:23;11.20;;;1.50;;
79578;SDS011;69051;52.406;5.280;2023-12-29T15:19:49;8.73;;;1.48;;
79578;SDS011;69051;52.406;5.280;2023-12-29T15:22:16;6.55;;;1.20;;